createdAt,value
2019-04-01T00:01:07.404Z,22.7
2019-04-01T00:03:09.046Z,20
2019-04-01T00:05:10.318Z,19.8
2019-04-01T00:07:11.744Z,22.6
2019-04-01T00:09:13.164Z,20
2019-04-01T00:11:14.506Z,23.5
2019-04-01T00:13:15.938Z,21.7
2019-04-01T00:15:17.363Z,19.7
2019-04-01T00:17:18.791Z,22.1
2019-04-01T00:19:20.221Z,23.3
2019-04-01T00:21:21.654Z,22.2
2019-04-01T00:23:23.077Z,24
2019-04-01T00:25:24.516Z,22.3
2019-04-01T00:27:25.943Z,21.6
2019-04-01T00:29:27.362Z,20.1
2019-04-01T00:31:28.787Z,22.2
2019-04-01T00:33:30.189Z,20.9
2019-04-01T00:35:31.571Z,21.5
2019-04-01T00:37:32.951Z,18.3
2019-04-01T00:39:34.281Z,20.8
2019-04-01T00:41:35.709Z,20.1
2019-04-01T00:43:37.088Z,20.8
2019-04-01T00:45:38.424Z,20.1
2019-04-01T00:47:39.832Z,20.5
2019-04-01T00:49:41.124Z,25.1
2019-04-01T00:51:42.552Z,23.1
2019-04-01T00:53:43.813Z,20.2
2019-04-01T00:55:45.194Z,19.3
2019-04-01T00:57:46.582Z,20.8
2019-04-01T00:59:47.955Z,17.9
2019-04-01T01:01:49.350Z,20.1
2019-04-01T01:03:50.750Z,20.7
2019-04-01T01:05:52.108Z,18
2019-04-01T01:07:53.485Z,21.6
2019-04-01T01:09:54.953Z,25.3
2019-04-01T01:11:56.252Z,19
2019-04-01T01:13:57.665Z,19.7
2019-04-01T01:15:59.017Z,20.9
2019-04-01T01:18:00.396Z,19.8
2019-04-01T01:20:01.825Z,22.5
2019-04-01T01:22:03.250Z,19.3
2019-04-01T01:24:04.578Z,20.4
2019-04-01T01:26:06.006Z,18.2
2019-04-01T01:28:07.334Z,18.3
2019-04-01T01:30:08.663Z,22.6
2019-04-01T01:32:10.086Z,19.9
2019-04-01T01:34:11.434Z,17.6
2019-04-01T01:36:12.815Z,21.4
2019-04-01T01:38:14.137Z,18.5
2019-04-01T01:40:15.420Z,20.5
2019-04-01T01:42:16.847Z,19.3
2019-04-01T01:44:18.271Z,20.6
2019-04-01T01:46:19.683Z,19.9
2019-04-01T01:48:21.028Z,18.3
2019-04-01T01:50:22.287Z,19.4
2019-04-01T01:52:23.688Z,20.9
2019-04-01T01:54:25.060Z,17.8
2019-04-01T01:56:26.448Z,21.4
2019-04-01T01:58:27.775Z,20.2
2019-04-01T02:00:29.172Z,17.2
2019-04-01T02:02:30.580Z,20.3
2019-04-01T02:04:31.963Z,19
2019-04-01T02:06:33.292Z,18.2
2019-04-01T02:08:34.709Z,19.3
2019-04-01T02:10:36.124Z,16.1
2019-04-01T02:12:37.460Z,15.9
2019-04-01T02:14:38.789Z,16.4
2019-04-01T02:16:40.210Z,20.1
2019-04-01T02:18:41.543Z,16.4
2019-04-01T02:20:42.818Z,14.6
2019-04-01T02:22:44.191Z,18.8
2019-04-01T02:24:45.518Z,17
2019-04-01T02:26:46.941Z,17.9
2019-04-01T02:28:48.361Z,15.1
2019-04-01T02:30:49.686Z,18.9
2019-04-01T02:32:51.118Z,19.4
2019-04-01T02:34:52.483Z,15.9
2019-04-01T02:36:53.857Z,17.6
2019-04-01T02:38:55.223Z,15.5
2019-04-01T02:40:56.486Z,17.1
2019-04-01T02:42:57.920Z,15.4
2019-04-01T02:44:59.340Z,17.1
2019-04-01T02:47:00.684Z,14.7
2019-04-01T02:49:02.068Z,16.3
2019-04-01T02:51:03.488Z,17.6
2019-04-01T02:53:04.911Z,16.2
2019-04-01T02:55:06.766Z,18.7
2019-04-01T02:57:08.933Z,16.2
2019-04-01T02:59:10.358Z,15.8
2019-04-01T03:01:11.730Z,17
2019-04-01T03:03:13.107Z,14.8
2019-04-01T03:05:14.495Z,18.1
2019-04-01T03:07:15.878Z,16.6
2019-04-01T03:09:17.303Z,18.3
2019-04-01T03:11:18.731Z,15.7
2019-04-01T03:13:20.101Z,16.1
2019-04-01T03:15:21.438Z,17.8
2019-04-01T03:17:22.781Z,15.4
2019-04-01T03:19:24.171Z,17
2019-04-01T03:21:25.548Z,17.4
2019-04-01T03:23:26.954Z,16.4
2019-04-01T03:25:28.317Z,18.6
2019-04-01T03:27:29.651Z,16.8
2019-04-01T03:29:31.023Z,14.4
2019-04-01T03:31:32.630Z,17.5
2019-04-01T03:33:34.324Z,16.6
2019-04-01T03:35:35.823Z,16.7
2019-04-01T03:37:37.251Z,17.1
2019-04-01T03:39:38.670Z,16
2019-04-01T03:41:40.092Z,16.5
2019-04-01T03:43:41.516Z,15.6
2019-04-01T03:45:42.928Z,15.7
2019-04-01T03:47:44.343Z,16.3
2019-04-01T03:49:45.769Z,15.1
2019-04-01T03:51:47.140Z,13.2
2019-04-01T03:53:48.560Z,18.5
2019-04-01T03:55:49.983Z,17.4
2019-04-01T03:57:51.416Z,14.2
2019-04-01T03:59:52.834Z,18.3
2019-04-01T04:01:54.244Z,15.5
2019-04-01T04:03:55.637Z,18.9
2019-04-01T04:05:57.015Z,13.5
2019-04-01T04:07:58.400Z,14.7
2019-04-01T04:09:59.922Z,13.3
2019-04-01T04:12:01.280Z,14.4
2019-04-01T04:14:02.697Z,13.6
2019-04-01T04:16:04.120Z,11.4
2019-04-01T04:18:05.446Z,14.6
2019-04-01T04:20:06.869Z,17.6
2019-04-01T04:22:08.266Z,16.8
2019-04-01T04:24:09.670Z,13.1
2019-04-01T04:26:11.046Z,12
2019-04-01T04:28:12.468Z,14.3
2019-04-01T04:30:13.882Z,12.3
2019-04-01T04:32:15.185Z,13.2
2019-04-01T04:34:16.565Z,11.9
2019-04-01T04:36:17.935Z,10.9
2019-04-01T04:38:19.342Z,11.7
2019-04-01T04:40:20.741Z,13
2019-04-01T04:42:22.083Z,10
2019-04-01T04:44:23.486Z,11.6
2019-04-01T04:46:24.842Z,11.6
2019-04-01T04:48:26.172Z,10.7
2019-04-01T04:50:27.603Z,9.8
2019-04-01T04:52:29.126Z,11.8
2019-04-01T04:54:30.458Z,7.9
2019-04-01T04:56:31.803Z,9.2
2019-04-01T04:58:33.147Z,9.4
2019-04-01T05:00:34.530Z,7.5
2019-04-01T05:02:35.864Z,8.3
2019-04-01T05:04:37.288Z,8.3
2019-04-01T05:06:38.707Z,9.3
2019-04-01T05:08:40.092Z,8.1
2019-04-01T05:10:41.453Z,9.4
2019-04-01T05:12:42.806Z,10.5
2019-04-01T05:14:44.191Z,10.2
2019-04-01T05:16:45.522Z,8.2
2019-04-01T05:18:46.941Z,10.4
2019-04-01T05:20:48.374Z,9.3
2019-04-01T05:22:49.793Z,8.1
2019-04-01T05:24:51.124Z,8.5
2019-04-01T05:26:52.546Z,10.7
2019-04-01T05:28:53.961Z,8.6
2019-04-01T05:30:55.288Z,10.1
2019-04-01T05:32:56.714Z,10.2
2019-04-01T05:34:58.041Z,8.6
2019-04-01T05:36:59.369Z,11.1
2019-04-01T05:39:00.794Z,10.6
2019-04-01T05:41:02.206Z,9.3
2019-04-01T05:43:03.634Z,10.9
2019-04-01T05:45:05.053Z,12.5
2019-04-01T05:47:06.496Z,7.8
2019-04-01T05:49:07.904Z,8.5
2019-04-01T05:51:09.326Z,10.4
2019-04-01T05:53:10.752Z,7.9
2019-04-01T05:57:47.138Z,8.4
2019-04-01T05:59:48.555Z,10.5
2019-04-01T06:01:50.009Z,9
2019-04-01T06:03:51.388Z,11
2019-04-01T06:05:52.716Z,6.7
2019-04-01T06:07:54.054Z,10
2019-04-01T06:09:55.383Z,8.3
2019-04-01T06:11:56.810Z,6.7
2019-04-01T06:13:58.235Z,6.7
2019-04-01T06:15:59.574Z,9.5
2019-04-01T06:18:01.002Z,7.6
2019-04-01T06:20:02.374Z,9.1
2019-04-01T06:22:03.744Z,7.9
2019-04-01T06:24:05.085Z,7.4
2019-04-01T06:26:06.492Z,10.8
2019-04-01T06:28:07.861Z,9.1
2019-04-01T06:30:09.245Z,9.4
2019-04-01T06:32:10.505Z,9.6
2019-04-01T06:34:11.895Z,9.8
2019-04-01T06:36:13.399Z,9.3
2019-04-01T06:38:14.695Z,9.6
2019-04-01T06:40:16.079Z,8.6
2019-04-01T06:42:17.492Z,8.1
2019-04-01T06:44:18.793Z,8.4
2019-04-01T06:46:20.122Z,13.8
2019-04-01T06:48:21.475Z,8.7
2019-04-01T06:50:22.865Z,7.9
2019-04-01T06:52:24.292Z,10
2019-04-01T06:54:25.703Z,10.3
2019-04-01T06:56:27.088Z,7.3
2019-04-01T06:58:28.463Z,10.2
2019-04-01T07:00:29.790Z,9.6
2019-04-01T07:02:31.147Z,9.9
2019-04-01T07:04:32.463Z,8.5
2019-04-01T07:06:33.796Z,10.3
2019-04-01T07:08:35.189Z,7.7
2019-04-01T07:10:36.467Z,10
2019-04-01T07:12:37.737Z,10.3
2019-04-01T07:14:39.129Z,11.8
2019-04-01T07:16:40.506Z,10.9
2019-04-01T07:18:41.831Z,9.1
2019-04-01T07:20:43.257Z,9.3
2019-04-01T07:22:44.627Z,7.8
2019-04-01T07:24:46.061Z,9.2
2019-04-01T07:26:47.530Z,9.7
2019-04-01T07:28:48.964Z,10.5
2019-04-01T07:30:50.398Z,9.6
2019-04-01T07:32:51.786Z,9.1
2019-04-01T07:34:53.193Z,6.7
2019-04-01T07:36:54.551Z,8.4
2019-04-01T07:38:55.912Z,8.5
2019-04-01T07:40:59.173Z,8
2019-04-01T07:43:00.761Z,10.1
2019-04-01T07:45:02.186Z,7.3
2019-04-01T07:47:03.565Z,9.2
2019-04-01T07:49:04.990Z,9.8
2019-04-01T07:51:07.163Z,10
2019-04-01T07:53:08.851Z,10.3
2019-04-01T07:55:10.274Z,9.2
2019-04-01T07:57:11.632Z,10.2
2019-04-01T07:59:13.057Z,8.4
2019-04-01T08:01:14.353Z,12.2
2019-04-01T08:03:15.776Z,9.7
2019-04-01T08:05:17.059Z,10
2019-04-01T08:07:18.445Z,10.9
2019-04-01T08:09:19.691Z,12.3
2019-04-01T08:11:21.119Z,11.3
2019-04-01T08:13:22.549Z,10.6
2019-04-01T08:15:23.939Z,9.7
2019-04-01T08:17:25.347Z,11.1
2019-04-01T08:19:26.683Z,10.9
2019-04-01T08:21:28.110Z,7.2
2019-04-01T08:23:29.487Z,8.5
2019-04-01T08:25:30.783Z,10.4
2019-04-01T08:27:32.135Z,10.4
2019-04-01T08:29:33.533Z,10.7
2019-04-01T08:31:34.805Z,8.9
2019-04-01T08:33:36.238Z,8.7
2019-04-01T08:35:37.578Z,6.7
2019-04-01T08:37:40.369Z,11.2
2019-04-01T08:39:42.247Z,12.1
2019-04-01T08:41:43.609Z,6.8
2019-04-01T08:43:44.930Z,9.5
2019-04-01T08:45:46.362Z,10.2
2019-04-01T08:47:47.694Z,13.3
2019-04-01T08:49:49.079Z,10.1
2019-04-01T08:51:50.461Z,8.4
2019-04-01T08:53:51.895Z,10.7
2019-04-01T08:56:00.484Z,9.8
2019-04-01T08:58:02.702Z,9.1
2019-04-01T09:00:04.061Z,10
2019-04-01T09:02:16.970Z,8.6
2019-04-01T09:04:19.843Z,9.6
2019-04-01T09:06:21.179Z,16.9
2019-04-01T09:08:22.608Z,11.9
2019-04-01T09:10:23.935Z,10.4
2019-04-01T09:12:25.275Z,14.6
2019-04-01T09:14:26.697Z,10.6
2019-04-01T09:16:28.035Z,9.7
2019-04-01T09:18:29.473Z,12.7
2019-04-01T09:20:30.903Z,10.6
2019-04-01T09:22:32.337Z,10.9
2019-04-01T09:24:33.669Z,14
2019-04-01T09:26:35.202Z,11.2
2019-04-01T09:28:36.640Z,11.7
2019-04-01T09:30:37.978Z,11.3
2019-04-01T09:32:39.256Z,12
2019-04-01T09:34:40.553Z,13.1
2019-04-01T09:36:41.805Z,11.4
2019-04-01T09:38:43.147Z,11.7
2019-04-01T09:40:44.528Z,9.8
2019-04-01T09:42:45.954Z,12.2
2019-04-01T09:44:47.295Z,10.9
2019-04-01T09:46:49.057Z,11.9
2019-04-01T09:48:50.469Z,10.3
2019-04-01T09:50:51.907Z,10
2019-04-01T09:52:53.259Z,14.2
2019-04-01T09:54:54.634Z,9.1
2019-04-01T09:56:55.975Z,13.4
2019-04-01T09:58:57.408Z,13.6
2019-04-01T10:00:58.774Z,11.3
2019-04-01T10:03:00.045Z,12.7
2019-04-01T10:05:01.385Z,13.4
2019-04-01T10:07:02.825Z,13
2019-04-01T10:09:04.158Z,16.4
2019-04-01T10:11:05.468Z,12.8
2019-04-01T10:13:06.844Z,13.8
2019-04-01T10:15:08.223Z,13.2
2019-04-01T10:17:09.592Z,14.4
2019-04-01T10:19:10.991Z,13.8
2019-04-01T10:21:12.426Z,13.1
2019-04-01T10:23:13.761Z,16.2
2019-04-01T10:25:15.209Z,12.4
2019-04-01T10:27:16.657Z,12.4
2019-04-01T10:29:18.081Z,12.7
2019-04-01T10:31:19.420Z,14.6
2019-04-01T10:33:20.811Z,15.2
2019-04-01T10:35:22.343Z,13.6
2019-04-01T10:37:23.744Z,12.8
2019-04-01T10:39:25.180Z,14.4
2019-04-01T10:41:26.711Z,16.1
2019-04-01T10:43:28.052Z,14.1
2019-04-01T10:45:29.490Z,15.3
2019-04-01T10:47:30.843Z,17.1
2019-04-01T10:49:32.355Z,15.8
2019-04-01T10:51:33.758Z,16.3
2019-04-01T10:53:35.259Z,17.7
2019-04-01T10:55:36.780Z,17.4
2019-04-01T10:57:38.375Z,14.1
2019-04-01T10:59:39.927Z,17.4
2019-04-01T11:01:41.421Z,12.3
2019-04-01T11:03:42.931Z,14.2
2019-04-01T11:05:44.366Z,14.5
2019-04-01T11:07:45.894Z,17.7
2019-04-01T11:09:47.373Z,13.9
2019-04-01T11:11:48.816Z,14.7
2019-04-01T11:13:51.901Z,12.9
2019-04-01T11:15:55.354Z,18.6
2019-04-01T11:17:56.752Z,14.3
2019-04-01T11:19:58.075Z,21.2
2019-04-01T11:21:59.582Z,14.3
2019-04-01T11:24:01.935Z,16.9
2019-04-01T11:26:03.761Z,16.5
2019-04-01T11:28:05.217Z,16.8
2019-04-01T11:30:07.689Z,16
2019-04-01T11:32:13.174Z,15.1
2019-04-01T11:34:15.191Z,14.8
2019-04-01T11:36:16.606Z,17.3
2019-04-01T11:38:18.047Z,20.1
2019-04-01T11:40:19.459Z,14.5
2019-04-01T11:42:20.948Z,16.1
2019-04-01T11:44:22.698Z,15.5
2019-04-01T11:46:24.107Z,14.3
2019-04-01T11:48:25.534Z,14.5
2019-04-01T11:50:26.923Z,14.3
2019-04-01T11:52:28.333Z,21.2
2019-04-01T11:54:29.768Z,19.9
2019-04-01T11:56:31.125Z,13.9
2019-04-01T11:58:32.564Z,15.7
2019-04-01T12:00:33.991Z,14
2019-04-01T12:02:35.352Z,16
2019-04-01T12:04:36.690Z,15.3
2019-04-01T12:06:37.942Z,19.8
2019-04-01T12:08:39.374Z,18.5
2019-04-01T12:10:40.813Z,17
2019-04-01T12:12:42.250Z,15.9
2019-04-01T12:14:43.684Z,14.7
2019-04-01T12:16:45.074Z,15.4
2019-04-01T12:18:46.446Z,15.2
2019-04-01T12:20:47.846Z,18.8
2019-04-01T12:22:49.185Z,16.5
2019-04-01T12:24:50.472Z,16.3
2019-04-01T12:26:51.762Z,14.3
2019-04-01T12:28:53.046Z,14.9
2019-04-01T12:30:54.437Z,16.2
2019-04-01T12:32:55.809Z,17.1
2019-04-01T12:34:57.247Z,17.6
2019-04-01T12:36:58.591Z,15.5
2019-04-01T12:39:00.128Z,14.7
2019-04-01T12:41:01.575Z,14.4
2019-04-01T12:43:02.843Z,19.1
2019-04-01T12:45:04.274Z,14.3
2019-04-01T12:47:05.716Z,17.7
2019-04-01T12:49:07.108Z,14.5
2019-04-01T12:51:08.518Z,15.6
2019-04-01T12:53:09.955Z,18.4
2019-04-01T12:55:11.320Z,15.9
2019-04-01T12:57:12.712Z,13
2019-04-01T12:59:14.050Z,14.9
2019-04-01T13:01:15.315Z,17.7
2019-04-01T13:03:16.646Z,12.4
2019-04-01T13:05:18.083Z,14.8
2019-04-01T13:07:19.915Z,14.5
2019-04-01T13:09:22.554Z,17.3
2019-04-01T13:11:23.996Z,14.2
2019-04-01T13:13:25.420Z,14.2
2019-04-01T13:15:26.845Z,13.2
2019-04-01T13:17:28.194Z,16.3
2019-04-01T13:19:29.631Z,15.4
2019-04-01T13:21:34.469Z,15.8
2019-04-01T13:23:36.808Z,17.6
2019-04-01T13:25:38.453Z,14.1
2019-04-01T13:27:39.894Z,16.4
2019-04-01T13:29:41.343Z,14.7
2019-04-01T13:31:42.779Z,17.9
2019-04-01T13:33:44.935Z,15.9
2019-04-01T13:35:46.661Z,13.2
2019-04-01T13:37:48.115Z,14.5
2019-04-01T13:39:49.542Z,15.2
2019-04-01T13:41:50.890Z,15.2
2019-04-01T13:43:52.319Z,13.8
2019-04-01T13:45:53.763Z,19.1
2019-04-01T13:47:55.073Z,17.1
2019-04-01T13:49:56.419Z,14.4
2019-04-01T13:51:59.047Z,14.4
2019-04-01T13:54:08.791Z,15.3
2019-04-01T13:56:12.894Z,14.8
2019-04-01T13:58:17.406Z,11.7
2019-04-01T14:00:20.312Z,13.1
2019-04-01T14:02:21.900Z,12.9
2019-04-01T14:04:23.345Z,16.6
2019-04-01T14:06:24.692Z,12.6
2019-04-01T14:08:26.120Z,12.8
2019-04-01T14:10:27.561Z,14.7
2019-04-01T14:12:29.003Z,13.9
2019-04-01T14:14:30.451Z,12.6
2019-04-01T14:16:31.892Z,14.3
2019-04-01T14:18:33.338Z,16.3
2019-04-01T14:20:34.804Z,13.8
2019-04-01T14:22:36.227Z,13.8
2019-04-01T14:24:37.574Z,12.9
2019-04-01T14:26:38.921Z,14.6
2019-04-01T14:28:40.218Z,15
2019-04-01T14:30:41.571Z,13.3
2019-04-01T14:32:43.016Z,14.8
2019-04-01T14:34:44.469Z,17.6
2019-04-01T14:36:45.902Z,16
2019-04-01T14:38:47.343Z,16
2019-04-01T14:40:48.795Z,14.5
2019-04-01T14:42:50.245Z,17
2019-04-01T14:44:51.691Z,15.5
2019-04-01T14:46:53.126Z,16.1
2019-04-01T14:48:54.470Z,17.9
2019-04-01T14:50:55.816Z,14.3
2019-04-01T14:52:57.163Z,13.9
2019-04-01T14:54:58.510Z,16.5
2019-04-01T14:56:59.853Z,15.2
2019-04-01T14:59:01.126Z,14.9
2019-04-01T15:01:02.565Z,14.3
2019-04-01T15:03:04.140Z,14.3
2019-04-01T15:05:05.657Z,15.1
2019-04-01T15:07:07.043Z,15.6
2019-04-01T15:09:08.353Z,14.7
2019-04-01T15:11:09.707Z,15.5
2019-04-01T15:13:11.146Z,13.3
2019-04-01T15:15:12.571Z,14.7
2019-04-01T15:17:14.009Z,15.3
2019-04-01T15:19:15.411Z,17.4
2019-04-01T15:21:16.860Z,16
2019-04-01T15:23:18.277Z,16.6
2019-04-01T15:25:19.692Z,14.1
2019-04-01T15:27:22.611Z,14.6
2019-04-01T15:29:24.136Z,14.4
2019-04-01T15:31:25.769Z,15.2
2019-04-01T15:33:27.314Z,14.1
2019-04-01T15:35:28.681Z,14
2019-04-01T15:37:32.091Z,15.5
2019-04-01T15:39:33.773Z,11.3
2019-04-01T15:41:35.038Z,16.9
2019-04-01T15:43:36.491Z,15.6
2019-04-01T15:45:37.892Z,16.2
2019-04-01T15:47:39.300Z,17.8
2019-04-01T15:49:40.706Z,14.2
2019-04-01T15:51:42.062Z,14.9
2019-04-01T15:53:43.443Z,16.8
2019-04-01T15:55:44.782Z,14.6
2019-04-01T15:57:46.352Z,16.2
2019-04-01T15:59:47.775Z,14.7
2019-04-01T16:01:49.042Z,16.7
2019-04-01T16:03:50.487Z,13.1
2019-04-01T16:05:51.745Z,16.2
2019-04-01T16:07:53.191Z,14.5
2019-04-01T16:09:54.634Z,13.9
2019-04-01T16:11:55.894Z,15.2
2019-04-01T16:13:57.334Z,14.2
2019-04-01T16:15:58.685Z,14.9
2019-04-01T16:18:00.044Z,12.2
2019-04-01T16:20:01.414Z,17.2
2019-04-01T16:22:02.795Z,12.2
2019-04-01T16:24:04.176Z,18.7
2019-04-01T16:26:05.551Z,12.8
2019-04-01T16:28:06.938Z,15.2
2019-04-01T16:30:08.382Z,14.9
2019-04-01T16:32:09.831Z,14.2
2019-04-01T16:34:11.265Z,15.6
2019-04-01T16:36:12.706Z,14.2
2019-04-01T16:38:14.051Z,14.1
2019-04-01T16:40:15.428Z,14
2019-04-01T16:42:16.765Z,15.7
2019-04-01T16:44:18.108Z,14
2019-04-01T16:46:19.456Z,13.3
2019-04-01T16:48:20.901Z,15.8
2019-04-01T16:50:22.369Z,12.8
2019-04-01T16:52:23.709Z,15.3
2019-04-01T16:54:25.152Z,14.8
2019-04-01T16:56:26.593Z,17.3
2019-04-01T16:58:28.320Z,16.5
2019-04-01T17:00:29.667Z,19.4
2019-04-01T17:02:32.860Z,14.2
2019-04-01T17:04:34.455Z,16.4
2019-04-01T17:06:35.794Z,18
2019-04-01T17:08:37.151Z,15.9
2019-04-01T17:10:38.591Z,13.1
2019-04-01T17:12:39.960Z,14.4
2019-04-01T17:14:41.302Z,18.9
2019-04-01T17:16:42.743Z,15.2
2019-04-01T17:18:44.092Z,17
2019-04-01T17:20:45.376Z,19.8
2019-04-01T17:22:46.720Z,18
2019-04-01T17:24:48.145Z,16.3
2019-04-01T17:26:50.305Z,21
2019-04-01T17:28:52.773Z,15.4
2019-04-01T17:30:54.123Z,18.7
2019-04-01T17:32:55.560Z,13.4
2019-04-01T17:34:56.968Z,17.8
2019-04-01T17:37:01.001Z,17.8
2019-04-01T17:39:02.936Z,17.9
2019-04-01T17:41:04.396Z,19.1
2019-04-01T17:43:05.668Z,19.9
2019-04-01T17:45:07.011Z,17.1
2019-04-01T17:47:08.357Z,17.8
2019-04-01T17:49:09.778Z,19.4
2019-04-01T17:51:11.129Z,14.4
2019-04-01T17:53:12.617Z,17.2
2019-04-01T17:55:13.996Z,17.9
2019-04-01T17:57:16.094Z,16.4
2019-04-01T17:59:17.817Z,18.1
2019-04-01T18:01:19.160Z,18.6
2019-04-01T18:03:20.600Z,18.5
2019-04-01T18:05:22.044Z,19.2
2019-04-01T18:07:24.382Z,15
2019-04-01T18:09:26.057Z,16.6
2019-04-01T18:11:27.400Z,16.3
2019-04-01T18:13:28.843Z,18.6
2019-04-01T18:15:30.275Z,21
2019-04-01T18:17:31.619Z,23.1
2019-04-01T18:19:33.028Z,18
2019-04-01T18:21:34.372Z,18
2019-04-01T18:23:35.625Z,20
2019-04-01T18:25:37.058Z,16.3
2019-04-01T18:27:38.318Z,18.5
2019-04-01T18:29:39.733Z,17.1
2019-04-01T18:31:41.156Z,15
2019-04-01T18:33:55.514Z,17.6
2019-04-01T18:35:58.139Z,16.4
2019-04-01T18:37:59.479Z,16.2
2019-04-01T18:40:00.915Z,18.3
2019-04-01T18:42:03.036Z,15.4
2019-04-01T18:44:04.738Z,18.4
2019-04-01T18:46:06.078Z,17.4
2019-04-01T18:48:07.361Z,15.3
2019-04-01T18:50:08.659Z,17.8
2019-04-01T18:52:10.003Z,16.8
2019-04-01T18:54:11.422Z,18.7
2019-04-01T18:56:12.760Z,19.5
2019-04-01T18:58:14.100Z,16.6
2019-04-01T19:00:15.502Z,15.5
2019-04-01T19:02:16.845Z,19.6
2019-04-01T19:04:18.127Z,24.1
2019-04-01T19:06:19.513Z,18.1
2019-04-01T19:08:20.898Z,19.3
2019-04-01T19:10:22.266Z,17.2
2019-04-01T19:12:23.640Z,19.2
2019-04-01T19:14:25.052Z,17
2019-04-01T19:16:26.391Z,20.4
2019-04-01T19:18:27.741Z,16.5
2019-04-01T19:20:30.308Z,16.4
2019-04-01T19:22:32.363Z,23.3
2019-04-01T19:24:34.595Z,20.4
2019-04-01T19:26:36.029Z,19.8
2019-04-01T19:28:37.367Z,17.2
2019-04-01T19:30:38.707Z,23.7
2019-04-01T19:32:40.121Z,20.6
2019-04-01T19:34:41.554Z,19.3
2019-04-01T19:36:42.882Z,24.3
2019-04-01T19:38:44.124Z,17.5
2019-04-01T19:40:45.427Z,21.6
2019-04-01T19:42:47.307Z,20.9
2019-04-01T19:44:48.967Z,23.1
2019-04-01T19:46:50.417Z,19.8
2019-04-01T19:48:51.749Z,19.6
2019-04-01T19:50:53.179Z,18.5
2019-04-01T19:52:55.388Z,17.8
2019-04-01T19:54:57.084Z,18.3
2019-04-01T19:56:59.104Z,15.1
2019-04-01T19:59:00.778Z,21.4
2019-04-01T20:01:02.067Z,18.1
2019-04-01T20:03:03.774Z,17.8
2019-04-01T20:05:05.211Z,19.7
2019-04-01T20:07:06.581Z,17.3
2019-04-01T20:09:08.116Z,17.4
2019-04-01T20:11:09.551Z,19.7
2019-04-01T20:13:10.987Z,16.1
2019-04-01T20:15:12.528Z,16.4
2019-04-01T20:17:13.973Z,17.1
2019-04-01T20:19:15.364Z,17.5
2019-04-01T20:21:16.702Z,18.1
2019-04-01T20:23:18.134Z,18.4
2019-04-01T20:25:19.472Z,17.7
2019-04-01T20:27:20.900Z,18.9
2019-04-01T20:29:22.280Z,19.8
2019-04-01T20:31:23.858Z,22.1
2019-04-01T20:33:25.232Z,19.3
2019-04-01T20:35:27.254Z,20.4
2019-04-01T20:37:30.078Z,18.6
2019-04-01T20:39:32.367Z,19.2
2019-04-01T20:41:33.708Z,16.3
2019-04-01T20:43:35.100Z,17.6
2019-04-01T20:45:36.468Z,17
2019-04-01T20:47:37.804Z,17
2019-04-01T20:49:39.238Z,18.7
2019-04-01T20:51:40.918Z,15
2019-04-01T20:53:42.355Z,19.4
2019-04-01T20:55:48.254Z,14.3
2019-04-01T20:57:51.020Z,21.9
2019-04-01T20:59:52.354Z,15.6
2019-04-01T21:01:53.627Z,14.3
2019-04-01T21:03:55.012Z,16.5
2019-04-01T21:05:56.399Z,16
2019-04-01T21:07:57.701Z,14.4
2019-04-01T21:09:59.039Z,16.4
2019-04-01T21:12:02.941Z,17.9
2019-04-01T21:14:04.492Z,14.1
2019-04-01T21:16:05.923Z,16.3
2019-04-01T21:18:07.351Z,15.6
2019-04-01T21:20:08.767Z,13.5
2019-04-01T21:22:10.123Z,14.9
2019-04-01T21:24:11.462Z,16
2019-04-01T21:26:12.887Z,16.7
2019-04-01T21:28:14.222Z,18.4
2019-04-01T21:30:15.554Z,18
2019-04-01T21:32:17.047Z,15.4
2019-04-01T21:34:18.730Z,16.3
2019-04-01T21:36:20.155Z,18.4
2019-04-01T21:38:21.516Z,19.7
2019-04-01T21:40:22.799Z,16.9
2019-04-01T21:42:24.046Z,16.4
2019-04-01T21:44:25.477Z,18.1
2019-04-01T21:46:26.833Z,15.9
2019-04-01T21:48:28.262Z,16.4
2019-04-01T21:50:29.774Z,17.5
2019-04-01T21:52:31.073Z,20.3
2019-04-01T21:54:32.460Z,17.5
2019-04-01T21:56:33.787Z,18.1
2019-04-01T21:58:35.216Z,16.6
2019-04-01T22:00:36.548Z,16.8
2019-04-01T22:02:37.973Z,18.7
2019-04-01T22:04:40.314Z,17.5
2019-04-01T22:06:43.002Z,17.1
2019-04-01T22:08:44.355Z,15.9
2019-04-01T22:10:45.588Z,16.9
2019-04-01T22:12:46.917Z,19.1
2019-04-01T22:14:48.169Z,16.6
2019-04-01T22:16:49.555Z,19.2
2019-04-01T22:18:50.931Z,14.9
2019-04-01T22:20:52.264Z,18.1
2019-04-01T22:22:53.699Z,16.3
2019-04-01T22:24:55.076Z,17.3
2019-04-01T22:26:56.486Z,17.7
2019-04-01T22:28:57.833Z,14.3
2019-04-01T22:30:59.217Z,19.6
2019-04-01T22:33:00.593Z,17.8
2019-04-01T22:35:01.990Z,16.6
2019-04-01T22:37:03.352Z,18.1
2019-04-01T22:39:04.777Z,17.6
2019-04-01T22:41:06.124Z,18.3
2019-04-01T22:43:07.534Z,20.7
2019-04-01T22:45:08.893Z,21
2019-04-01T22:47:10.218Z,17.1
2019-04-01T22:49:12.189Z,20.6
2019-04-01T22:51:14.011Z,15.9
2019-04-01T22:53:15.331Z,17
2019-04-01T22:55:16.662Z,17.8
2019-04-01T22:57:17.898Z,18.7
2019-04-01T22:59:20.160Z,17.4
2019-04-01T23:01:21.911Z,21.8
2019-04-01T23:05:24.749Z,17.5
2019-04-01T23:07:26.123Z,19.6
2019-04-01T23:09:28.120Z,19.4
2019-04-01T23:11:30.381Z,18.7
2019-04-01T23:13:31.805Z,19
2019-04-01T23:15:33.230Z,19.3
2019-04-01T23:17:34.651Z,18.6
2019-04-01T23:19:36.025Z,19.9
2019-04-01T23:21:37.395Z,21.8
2019-04-01T23:23:38.807Z,20.9
2019-04-01T23:25:40.162Z,20.5
2019-04-01T23:27:41.563Z,19.1
2019-04-01T23:29:42.888Z,17.1
2019-04-01T23:31:44.239Z,20.5
2019-04-01T23:33:45.666Z,20.9
2019-04-01T23:35:47.089Z,22.4
2019-04-01T23:37:48.438Z,20.9
2019-04-01T23:39:49.859Z,22.1
2019-04-01T23:41:51.263Z,21.8
2019-04-01T23:43:52.646Z,21.1
2019-04-01T23:45:54.021Z,19.4
2019-04-01T23:47:55.400Z,21.6
2019-04-01T23:49:56.840Z,18
2019-04-01T23:51:58.203Z,18.4
2019-04-01T23:53:59.626Z,18.6
2019-04-01T23:56:01.057Z,21.3
2019-04-01T23:58:02.481Z,18.6
